SBGL/GIG METAR and TAF weather

Enter ICAO airport designator
Station Type Date Time Source
SBGL METAR 2019/09/20 09:00 UTC NOAA

SBGL 200900Z 10004KT 3500 BR SCT009 22/20 Q1010


Station Type Date Time Source
SBGL Decoded METAR 2019/09/20 09:00 UTC NOAA

Galeao, Brazil (SBGL) 22-49S 043-15W 42M
Sep 20, 2019 - 05:00 AM EDT / 2019.09.20 0900 UTC
Wind: from the E (100 degrees) at 5 MPH (4 KT):0
Visibility: 2 mile(s):0
Sky conditions: partly cloudy
Weather: mist
Temperature: 71 F (22 C)
Dew Point: 68 F (20 C)
Relative Humidity: 88%
Pressure (altimeter): 29.83 in. Hg (1010 hPa)
ob: SBGL 200900Z 10004KT 3500 BR SCT009 22/20 Q1010
cycle: 9

Station Type Date Time Source
SBGL TAF 2019/09/20 12:18 UTC NOAA

TAF SBGL 200830Z 2012/2118 13005KT 9999 SCT020 TX32/2016Z TN23/2109Z
BECMG 2018/2020 16010KT SCT020
BECMG 2020/2022 22007KT
BECMG 2100/2102 24010KT BKN020 PROB30 2109/2111 4000 DZ BR BKN008
BECMG 2112/2114 12015KT SCT030
RMK PGY

Example: see airport list